Time;durP1;ratioP1;P1;durP2;ratioP2;P2;SDS_P1;SDS_P2;PMS_P1;PMS_P2;Temp;Humidity;BMP_temperature;BMP_pressure;BME280_temperature;BME280_humidity;BME280_pressure;Samples;Min_cycle;Max_cycle;Signal;HPM_P1;HPM_P2
2022/01/22 00:02:08;;;;;;;35.43;20.57;;;;;;;;;;4992981;28;20500;-47
2022/01/22 00:04:34;;;;;;;36.92;20.58;;;;;;;;;;4992778;28;20442;-47
2022/01/22 00:07:02;;;;;;;35.38;20.88;;;;;;;;;;4992853;28;20161;-47
2022/01/22 00:09:35;;;;;;;40.53;21.00;;;;;;;;;;4989268;28;20177;-47
2022/01/22 00:12:01;;;;;;;39.50;21.52;;;;;;;;;;4992663;28;20193;-47
2022/01/22 00:14:27;;;;;;;40.23;20.57;;;;;;;;;;4989180;28;20240;-48
2022/01/22 00:16:55;;;;;;;51.23;21.53;;;;;;;;;;4992557;28;20416;-48
2022/01/22 00:19:21;;;;;;;45.38;25.52;;;;;;;;;;4992266;28;20404;-48
2022/01/22 00:21:47;;;;;;;46.00;24.38;;;;;;;;;;4992402;28;20192;-49
2022/01/22 00:24:13;;;;;;;42.78;22.50;;;;;;;;;;4992220;28;20212;-49
2022/01/22 00:26:40;;;;;;;44.03;21.13;;;;;;;;;;4992420;28;20165;-47
2022/01/22 00:29:06;;;;;;;48.25;22.40;;;;;;;;;;4992010;28;20180;-48
2022/01/22 00:31:32;;;;;;;42.85;23.25;;;;;;;;;;4992276;28;20173;-48
2022/01/22 00:33:57;;;;;;;45.80;24.30;;;;;;;;;;4992001;28;20676;-49
2022/01/22 00:36:23;;;;;;;47.40;22.90;;;;;;;;;;4992162;28;20796;-47
2022/01/22 00:38:49;;;;;;;46.17;23.53;;;;;;;;;;4988700;28;20432;-48
2022/01/22 00:41:15;;;;;;;40.77;23.10;;;;;;;;;;4992030;28;20396;-49
2022/01/22 00:43:41;;;;;;;45.90;21.77;;;;;;;;;;4991791;28;20431;-48
2022/01/22 00:46:07;;;;;;;43.20;24.40;;;;;;;;;;4992034;28;20470;-48
2022/01/22 00:48:33;;;;;;;58.57;24.63;;;;;;;;;;4987278;28;20431;-48
2022/01/22 00:51:00;;;;;;;47.90;22.73;;;;;;;;;;4991727;28;20446;-48
2022/01/22 00:53:27;;;;;;;40.20;20.97;;;;;;;;;;4991807;28;20284;-49
2022/01/22 00:55:53;;;;;;;38.30;22.65;;;;;;;;;;4991881;28;20491;-48
2022/01/22 00:58:20;;;;;;;38.60;22.60;;;;;;;;;;4991718;28;20895;-47
2022/01/22 01:00:46;;;;;;;48.85;22.13;;;;;;;;;;4990911;28;20177;-49
2022/01/22 01:03:14;;;;;;;34.50;19.83;;;;;;;;;;4991652;28;20259;-47
2022/01/22 01:05:40;;;;;;;36.97;21.75;;;;;;;;;;4991759;28;20404;-48
2022/01/22 01:08:06;;;;;;;31.10;19.17;;;;;;;;;;4991767;28;20173;-48
2022/01/22 01:10:33;;;;;;;38.50;19.50;;;;;;;;;;4991446;28;20404;-48
2022/01/22 01:13:00;;;;;;;37.58;20.02;;;;;;;;;;4988680;28;20246;-47
2022/01/22 01:15:41;;;;;;;36.83;20.67;;;;;;;;;;4990438;28;20219;-47
2022/01/22 01:34:29;;;;;;;40.42;19.17;;;;;;;;;;4991639;28;20200;-47
2022/01/22 01:36:54;;;;;;;32.20;19.70;;;;;;;;;;4991587;28;20166;-47
2022/01/22 01:39:26;;;;;;;37.17;21.00;;;;;;;;;;4991328;28;20435;-47
2022/01/22 01:41:59;;;;;;;40.85;20.65;;;;;;;;;;4991371;28;20393;-47
2022/01/22 01:44:25;;;;;;;47.10;22.38;;;;;;;;;;4989704;28;20616;-48
2022/01/22 01:46:53;;;;;;;32.60;18.83;;;;;;;;;;4991035;28;20645;-48
2022/01/22 01:49:51;;;;;;;35.63;19.50;;;;;;;;;;4990900;28;20165;-47
2022/01/22 01:52:25;;;;;;;36.28;19.70;;;;;;;;;;4991284;28;20169;-48
2022/01/22 01:55:04;;;;;;;35.05;19.20;;;;;;;;;;4991401;28;20185;-48
2022/01/22 01:57:38;;;;;;;37.28;20.17;;;;;;;;;;4991342;28;20157;-48
2022/01/22 02:00:05;;;;;;;38.65;21.83;;;;;;;;;;4991070;28;20180;-48
2022/01/22 02:02:33;;;;;;;39.17;21.30;;;;;;;;;;4990387;28;20180;-48
2022/01/22 02:04:59;;;;;;;49.03;22.27;;;;;;;;;;4990737;28;20185;-48
2022/01/22 02:07:25;;;;;;;33.40;20.40;;;;;;;;;;4990755;28;20679;-48
2022/01/22 02:09:51;;;;;;;42.67;26.00;;;;;;;;;;4990618;28;20492;-48
2022/01/22 02:12:43;;;;;;;39.80;22.38;;;;;;;;;;4993526;28;20184;-49
2022/01/22 02:23:33;;;;;;;50.67;25.25;;;;;;;;;;4993512;28;20232;-47
2022/01/22 02:25:59;;;;;;;48.08;24.42;;;;;;;;;;4994719;28;20169;-47
2022/01/22 02:28:25;;;;;;;53.10;27.33;;;;;;;;;;4991794;28;20240;-47
2022/01/22 02:30:58;;;;;;;50.95;26.98;;;;;;;;;;4994295;28;20404;-48
2022/01/22 02:33:39;;;;;;;51.78;27.17;;;;;;;;;;4994330;28;20205;-47
2022/01/22 02:36:23;;;;;;;53.47;26.65;;;;;;;;;;4994534;28;20256;-49
2022/01/22 02:41:22;;;;;;;51.60;25.55;;;;;;;;;;4994440;28;20569;-48
2022/01/22 02:43:48;;;;;;;57.25;28.75;;;;;;;;;;4994210;28;20196;-48
2022/01/22 02:46:19;;;;;;;42.35;26.50;;;;;;;;;;4994327;28;20625;-47
2022/01/22 02:48:45;;;;;;;54.83;27.60;;;;;;;;;;4990764;28;20284;-47
2022/01/22 02:51:11;;;;;;;50.20;27.33;;;;;;;;;;4994383;28;20660;-48
2022/01/22 02:53:37;;;;;;;46.63;27.58;;;;;;;;;;4994135;28;20467;-48
2022/01/22 02:56:03;;;;;;;63.93;27.90;;;;;;;;;;4994199;28;20571;-48
2022/01/22 02:58:29;;;;;;;50.53;27.02;;;;;;;;;;4994027;28;20484;-49
2022/01/22 03:00:55;;;;;;;57.58;27.50;;;;;;;;;;4993823;28;20227;-48
2022/01/22 03:03:21;;;;;;;52.13;27.03;;;;;;;;;;4993812;28;20193;-50
2022/01/22 03:05:47;;;;;;;55.73;30.10;;;;;;;;;;4993903;28;20436;-48
2022/01/22 03:08:14;;;;;;;45.83;25.03;;;;;;;;;;4993918;28;20888;-47
2022/01/22 03:10:44;;;;;;;45.15;24.95;;;;;;;;;;4993604;28;20404;-48
2022/01/22 03:13:25;;;;;;;49.55;25.70;;;;;;;;;;4992027;28;20914;-48
2022/01/22 03:18:41;;;;;;;56.15;28.38;;;;;;;;;;4993840;28;20207;-49
2022/01/22 03:29:08;;;;;;;42.38;24.60;;;;;;;;;;4993282;28;20719;-47
2022/01/22 03:31:35;;;;;;;49.50;26.90;;;;;;;;;;4993498;28;20653;-49
2022/01/22 03:34:01;;;;;;;53.80;26.75;;;;;;;;;;4993131;28;20216;-48
2022/01/22 03:36:33;;;;;;;48.10;25.70;;;;;;;;;;4990012;28;20176;-47
2022/01/22 03:38:59;;;;;;;45.97;24.95;;;;;;;;;;4992984;28;20884;-48
2022/01/22 03:41:25;;;;;;;44.85;24.02;;;;;;;;;;4992472;28;20576;-48
2022/01/22 03:43:52;;;;;;;47.03;23.77;;;;;;;;;;4992738;28;20192;-49
2022/01/22 03:46:19;;;;;;;42.35;22.95;;;;;;;;;;4993101;28;20888;-48
2022/01/22 03:48:45;;;;;;;41.05;22.95;;;;;;;;;;4993051;28;20173;-47
2022/01/22 03:51:11;;;;;;;50.17;24.43;;;;;;;;;;4993060;28;20185;-47
2022/01/22 03:53:37;;;;;;;49.20;22.52;;;;;;;;;;4993010;28;20535;-48
2022/01/22 03:56:04;;;;;;;42.50;23.10;;;;;;;;;;4992890;28;20197;-48
2022/01/22 03:58:36;;;;;;;40.75;22.17;;;;;;;;;;4992907;28;20792;-48
2022/01/22 04:04:06;;;;;;;43.63;21.40;;;;;;;;;;4993073;28;20212;-47
2022/01/22 04:09:01;;;;;;;47.23;23.07;;;;;;;;;;4992722;28;20177;-47
2022/01/22 04:11:29;;;;;;;51.30;22.50;;;;;;;;;;4992846;28;20404;-48
2022/01/22 04:14:00;;;;;;;38.38;21.92;;;;;;;;;;4992765;28;20959;-47
2022/01/22 04:16:27;;;;;;;44.15;23.17;;;;;;;;;;4992783;28;20259;-48
2022/01/22 04:27:13;;;;;;;43.03;20.70;;;;;;;;;;4992415;28;20191;-50
2022/01/22 04:29:39;;;;;;;41.72;22.98;;;;;;;;;;4992188;28;20251;-47
2022/01/22 04:32:06;;;;;;;44.35;22.02;;;;;;;;;;4987593;28;20213;-48
2022/01/22 04:34:34;;;;;;;38.13;20.48;;;;;;;;;;4991870;28;20209;-49
2022/01/22 04:37:00;;;;;;;40.47;21.50;;;;;;;;;;4992133;28;20162;-49
2022/01/22 04:39:27;;;;;;;39.58;20.55;;;;;;;;;;4991900;28;20176;-49
2022/01/22 04:41:56;;;;;;;39.63;19.58;;;;;;;;;;4992071;28;20161;-47
2022/01/22 04:44:29;;;;;;;39.08;19.00;;;;;;;;;;4992034;28;20642;-48
2022/01/22 04:52:40;;;;;;;37.45;20.20;;;;;;;;;;4991874;28;20635;-49
2022/01/22 04:55:08;;;;;;;33.67;18.48;;;;;;;;;;4991936;28;20211;-48
2022/01/22 04:57:35;;;;;;;34.58;17.52;;;;;;;;;;4991854;28;20171;-47
2022/01/22 05:00:01;;;;;;;36.40;19.10;;;;;;;;;;4991627;28;20207;-48
2022/01/22 05:02:27;;;;;;;36.67;18.77;;;;;;;;;;4988795;28;20645;-47
2022/01/22 05:04:53;;;;;;;33.50;17.87;;;;;;;;;;4991732;28;20199;-48
2022/01/22 05:07:19;;;;;;;34.33;17.33;;;;;;;;;;4991750;28;20409;-47
2022/01/22 05:09:45;;;;;;;34.37;18.63;;;;;;;;;;4991492;28;20850;-48
2022/01/22 05:12:11;;;;;;;30.90;17.77;;;;;;;;;;4991530;28;20412;-49
2022/01/22 05:14:37;;;;;;;31.35;17.10;;;;;;;;;;4991577;28;20448;-49
2022/01/22 05:17:06;;;;;;;29.97;17.27;;;;;;;;;;4991682;28;20169;-48
2022/01/22 05:22:31;;;;;;;30.73;16.75;;;;;;;;;;4991699;28;20182;-48
2022/01/22 05:24:57;;;;;;;34.90;18.40;;;;;;;;;;4991285;28;20708;-47
2022/01/22 05:38:07;;;;;;;38.67;18.38;;;;;;;;;;4992109;28;20226;-48
2022/01/22 05:40:33;;;;;;;35.45;19.15;;;;;;;;;;4991453;28;20169;-48
2022/01/22 05:42:59;;;;;;;37.60;19.23;;;;;;;;;;4991520;28;20668;-47
2022/01/22 05:45:25;;;;;;;34.50;18.60;;;;;;;;;;4991475;28;20519;-47
2022/01/22 05:47:51;;;;;;;34.03;17.33;;;;;;;;;;4995111;28;20910;-48
2022/01/22 05:50:30;;;;;;;36.50;18.10;;;;;;;;;;4995186;28;20169;-48
2022/01/22 05:53:03;;;;;;;37.38;17.45;;;;;;;;;;4995112;28;20455;-48
2022/01/22 06:00:43;;;;;;;28.48;16.23;;;;;;;;;;4993578;28;20578;-48
2022/01/22 06:03:09;;;;;;;36.47;18.67;;;;;;;;;;4994944;28;20165;-47
2022/01/22 06:05:36;;;;;;;36.20;20.43;;;;;;;;;;4994857;28;20799;-47
2022/01/22 06:08:02;;;;;;;43.45;19.42;;;;;;;;;;4994888;28;20411;-49
2022/01/22 06:10:32;;;;;;;36.83;18.77;;;;;;;;;;4995191;28;20581;-47
2022/01/22 06:13:11;;;;;;;39.15;19.05;;;;;;;;;;4994722;28;20455;-48
2022/01/22 06:15:37;;;;;;;46.05;19.83;;;;;;;;;;4994855;28;20166;-48
2022/01/22 06:18:03;;;;;;;30.75;17.92;;;;;;;;;;4994806;28;20165;-48
2022/01/22 06:20:29;;;;;;;39.58;17.95;;;;;;;;;;4994511;28;20204;-50
2022/01/22 06:22:55;;;;;;;40.10;19.17;;;;;;;;;;4994377;28;20294;-47
2022/01/22 06:25:21;;;;;;;37.60;18.30;;;;;;;;;;4994624;28;20400;-47
2022/01/22 06:27:47;;;;;;;39.10;19.40;;;;;;;;;;4994541;28;20401;-47
2022/01/22 06:30:13;;;;;;;35.57;18.60;;;;;;;;;;4994464;28;20533;-48
2022/01/22 06:32:39;;;;;;;46.53;20.80;;;;;;;;;;4990337;28;20495;-47
2022/01/22 06:35:05;;;;;;;35.27;18.07;;;;;;;;;;4994542;28;20447;-48
2022/01/22 06:37:31;;;;;;;47.85;20.23;;;;;;;;;;4990992;28;20451;-48
2022/01/22 06:42:46;;;;;;;42.58;18.65;;;;;;;;;;4974948;28;20474;-48
2022/01/22 06:45:12;;;;;;;41.77;18.97;;;;;;;;;;4994140;28;20204;-48
2022/01/22 06:47:39;;;;;;;39.80;18.23;;;;;;;;;;4994189;28;20400;-49
2022/01/22 06:50:05;;;;;;;39.70;19.15;;;;;;;;;;4994024;28;20204;-48
2022/01/22 06:52:31;;;;;;;44.88;19.63;;;;;;;;;;4994160;28;20568;-47
2022/01/22 06:54:58;;;;;;;34.25;18.80;;;;;;;;;;4994231;28;20641;-48
2022/01/22 06:57:23;;;;;;;40.17;17.95;;;;;;;;;;4993515;28;20166;-47
2022/01/22 06:59:49;;;;;;;33.63;18.20;;;;;;;;;;4993774;28;20192;-47
2022/01/22 07:02:17;;;;;;;39.87;19.23;;;;;;;;;;4989958;28;20436;-48
2022/01/22 07:04:43;;;;;;;42.33;20.13;;;;;;;;;;4993987;28;20439;-47
2022/01/22 07:07:12;;;;;;;45.07;20.07;;;;;;;;;;4994024;28;20256;-47
2022/01/22 07:09:38;;;;;;;34.83;17.90;;;;;;;;;;4993644;28;20539;-49
2022/01/22 07:12:05;;;;;;;40.13;19.83;;;;;;;;;;4993768;28;20184;-49
2022/01/22 07:14:31;;;;;;;38.67;19.52;;;;;;;;;;4993562;28;20263;-48
2022/01/22 07:16:57;;;;;;;43.73;21.17;;;;;;;;;;4993739;28;20197;-48
2022/01/22 07:19:23;;;;;;;49.63;19.57;;;;;;;;;;4993481;28;20408;-50
2022/01/22 07:21:59;;;;;;;40.03;19.33;;;;;;;;;;4993609;28;20955;-48
2022/01/22 07:24:36;;;;;;;42.40;18.73;;;;;;;;;;4993394;28;20443;-47
2022/01/22 07:27:02;;;;;;;40.10;19.50;;;;;;;;;;4993494;28;20188;-48
2022/01/22 07:29:28;;;;;;;40.40;19.33;;;;;;;;;;4993202;28;20646;-48
2022/01/22 07:31:54;;;;;;;47.30;19.50;;;;;;;;;;4991789;28;20443;-49
2022/01/22 07:34:20;;;;;;;31.73;18.10;;;;;;;;;;4990875;28;20467;-48
2022/01/22 07:36:46;;;;;;;38.60;18.13;;;;;;;;;;4993331;28;20168;-48
2022/01/22 07:39:12;;;;;;;38.87;18.23;;;;;;;;;;4993090;28;20405;-48
2022/01/22 07:41:38;;;;;;;36.87;17.47;;;;;;;;;;4993147;28;20400;-48
2022/01/22 07:44:04;;;;;;;38.80;18.10;;;;;;;;;;4992951;28;20432;-47
2022/01/22 07:46:30;;;;;;;35.47;17.38;;;;;;;;;;4993118;28;20864;-48
2022/01/22 07:48:56;;;;;;;43.80;17.93;;;;;;;;;;4992848;28;20173;-48
2022/01/22 07:51:22;;;;;;;36.97;16.47;;;;;;;;;;4993067;28;20891;-48
2022/01/22 07:53:48;;;;;;;38.80;17.40;;;;;;;;;;4992683;28;20489;-48
2022/01/22 07:56:15;;;;;;;38.33;19.27;;;;;;;;;;4992857;28;20927;-49
2022/01/22 07:58:41;;;;;;;41.67;18.77;;;;;;;;;;4992945;28;20404;-48
2022/01/22 08:01:07;;;;;;;37.58;18.15;;;;;;;;;;4991187;28;20200;-48
2022/01/22 08:03:33;;;;;;;44.45;18.63;;;;;;;;;;4991713;28;20239;-50
2022/01/22 08:06:02;;;;;;;39.13;18.95;;;;;;;;;;4992828;28;20184;-49
2022/01/22 08:08:28;;;;;;;42.55;19.38;;;;;;;;;;4992644;28;20173;-48
2022/01/22 08:10:54;;;;;;;38.13;18.20;;;;;;;;;;4991205;28;20269;-48
2022/01/22 08:13:21;;;;;;;43.13;18.67;;;;;;;;;;4992527;28;20967;-48
2022/01/22 08:15:47;;;;;;;33.88;16.75;;;;;;;;;;4992656;28;20470;-47
2022/01/22 08:18:13;;;;;;;49.73;19.37;;;;;;;;;;4992607;28;20165;-47
2022/01/22 08:20:39;;;;;;;42.30;18.97;;;;;;;;;;4992311;28;20405;-47
2022/01/22 08:23:05;;;;;;;40.58;18.50;;;;;;;;;;4992039;28;20935;-48
2022/01/22 08:25:33;;;;;;;46.53;18.77;;;;;;;;;;4992222;28;20165;-47
2022/01/22 08:30:33;;;;;;;40.20;16.95;;;;;;;;;;4992351;28;20676;-47
2022/01/22 08:35:53;;;;;;;40.60;19.65;;;;;;;;;;4992146;28;20176;-49
2022/01/22 08:38:19;;;;;;;46.13;18.95;;;;;;;;;;4992143;28;20531;-48
2022/01/22 08:40:45;;;;;;;41.13;18.50;;;;;;;;;;4991971;28;20192;-48
2022/01/22 08:43:11;;;;;;;47.17;20.03;;;;;;;;;;4992121;28;20677;-48
2022/01/22 08:45:37;;;;;;;42.33;18.05;;;;;;;;;;4992064;28;20408;-48
2022/01/22 08:48:04;;;;;;;36.47;18.47;;;;;;;;;;4992019;28;20716;-50
2022/01/22 08:50:30;;;;;;;35.75;18.45;;;;;;;;;;4991624;28;20580;-48
2022/01/22 08:52:56;;;;;;;34.70;17.90;;;;;;;;;;4991732;28;20857;-47
2022/01/22 08:55:22;;;;;;;40.35;18.77;;;;;;;;;;4991933;28;20242;-49
2022/01/22 08:57:49;;;;;;;36.30;17.93;;;;;;;;;;4991926;28;20681;-50
2022/01/22 09:00:17;;;;;;;46.85;18.83;;;;;;;;;;4991779;28;20537;-47
2022/01/22 09:02:45;;;;;;;36.78;15.85;;;;;;;;;;4988157;28;20181;-48
2022/01/22 09:05:11;;;;;;;36.92;16.65;;;;;;;;;;4990559;28;20196;-49
2022/01/22 09:07:37;;;;;;;36.85;17.25;;;;;;;;;;4991868;28;20177;-49
2022/01/22 09:10:05;;;;;;;43.33;16.75;;;;;;;;;;4991601;28;20184;-49
2022/01/22 09:12:31;;;;;;;38.70;17.73;;;;;;;;;;4991672;28;20187;-48
2022/01/22 09:14:57;;;;;;;36.10;16.43;;;;;;;;;;4991604;28;20193;-48
2022/01/22 09:17:24;;;;;;;30.75;15.18;;;;;;;;;;4991772;28;20408;-47
2022/01/22 09:19:57;;;;;;;33.43;16.07;;;;;;;;;;4991463;28;20169;-48
2022/01/22 09:22:24;;;;;;;30.67;14.55;;;;;;;;;;4991120;28;20412;-48
2022/01/22 09:24:51;;;;;;;32.35;16.00;;;;;;;;;;4991636;28;20201;-50
2022/01/22 09:27:17;;;;;;;34.33;17.13;;;;;;;;;;4991892;28;20212;-48
2022/01/22 09:29:44;;;;;;;30.63;16.15;;;;;;;;;;4991682;28;20165;-48
2022/01/22 09:32:10;;;;;;;28.95;15.65;;;;;;;;;;4990262;28;20184;-47
2022/01/22 09:34:37;;;;;;;31.80;16.52;;;;;;;;;;4991559;28;20232;-48
2022/01/22 09:37:03;;;;;;;51.28;18.35;;;;;;;;;;4991601;28;20249;-47
2022/01/22 09:39:29;;;;;;;32.92;15.20;;;;;;;;;;4991320;28;20165;-47
2022/01/22 09:41:55;;;;;;;29.40;15.07;;;;;;;;;;4991726;28;20161;-48
2022/01/22 09:44:21;;;;;;;35.50;15.57;;;;;;;;;;4991441;28;20419;-48
2022/01/22 09:46:47;;;;;;;34.43;16.03;;;;;;;;;;4991410;28;20566;-48
2022/01/22 09:49:14;;;;;;;27.10;15.03;;;;;;;;;;4991187;28;20404;-48
2022/01/22 09:51:41;;;;;;;24.88;13.57;;;;;;;;;;4991412;28;20486;-51
2022/01/22 09:54:07;;;;;;;26.55;14.07;;;;;;;;;;4991294;28;20651;-48
2022/01/22 09:56:34;;;;;;;30.35;16.55;;;;;;;;;;4991432;28;20176;-48
2022/01/22 09:59:01;;;;;;;24.60;14.20;;;;;;;;;;4991191;28;20165;-48
2022/01/22 10:01:28;;;;;;;26.92;15.10;;;;;;;;;;4990041;28;20189;-49
2022/01/22 10:03:58;;;;;;;32.05;14.80;;;;;;;;;;4988466;28;20208;-48
2022/01/22 10:06:26;;;;;;;25.98;13.35;;;;;;;;;;4990464;28;20525;-48
2022/01/22 10:08:56;;;;;;;28.85;14.68;;;;;;;;;;4990939;28;20553;-50
2022/01/22 10:11:23;;;;;;;31.33;15.68;;;;;;;;;;4991243;28;20165;-48
2022/01/22 10:13:52;;;;;;;28.80;14.77;;;;;;;;;;4990914;28;20208;-48
2022/01/22 10:16:22;;;;;;;31.65;16.83;;;;;;;;;;4991184;28;20166;-48
2022/01/22 10:19:17;;;;;;;37.90;17.15;;;;;;;;;;4991122;28;20248;-49
2022/01/22 10:21:56;;;;;;;39.53;18.23;;;;;;;;;;4989041;28;20739;-48
2022/01/22 10:24:37;;;;;;;33.50;17.90;;;;;;;;;;4990961;28;20209;-49
2022/01/22 10:27:35;;;;;;;34.47;17.05;;;;;;;;;;4991073;28;20173;-48
2022/01/22 10:30:04;;;;;;;35.08;18.02;;;;;;;;;;4990870;28;20245;-48
2022/01/22 10:32:43;;;;;;;37.80;18.92;;;;;;;;;;4990558;28;20173;-49
2022/01/22 10:35:10;;;;;;;36.20;17.60;;;;;;;;;;4981554;28;20204;-48
2022/01/22 10:37:37;;;;;;;35.57;17.10;;;;;;;;;;4973842;28;20924;-48
2022/01/22 10:40:23;;;;;;;31.48;17.42;;;;;;;;;;4974359;28;20421;-49
2022/01/22 10:42:49;;;;;;;37.13;17.50;;;;;;;;;;4974546;28;20725;-48
2022/01/22 10:45:19;;;;;;;40.55;18.70;;;;;;;;;;4974757;28;20200;-51
2022/01/22 10:47:45;;;;;;;41.92;20.42;;;;;;;;;;4974854;28;20196;-48
2022/01/22 10:50:19;;;;;;;40.20;19.80;;;;;;;;;;4974517;28;20209;-48
2022/01/22 10:52:53;;;;;;;39.33;19.60;;;;;;;;;;4974575;28;20190;-48
2022/01/22 10:55:19;;;;;;;41.65;19.35;;;;;;;;;;4974698;28;20257;-49
2022/01/22 10:58:04;;;;;;;43.72;19.50;;;;;;;;;;4974770;28;20200;-48
2022/01/22 11:00:31;;;;;;;39.28;20.42;;;;;;;;;;4974104;28;20177;-48
2022/01/22 11:02:57;;;;;;;36.40;18.58;;;;;;;;;;4985028;28;20665;-47
2022/01/22 11:05:37;;;;;;;35.00;16.97;;;;;;;;;;4993999;28;20176;-48
2022/01/22 11:08:12;;;;;;;36.90;17.90;;;;;;;;;;4993908;28;20436;-48
2022/01/22 11:10:40;;;;;;;37.60;18.98;;;;;;;;;;4993641;28;20171;-48
2022/01/22 11:13:05;;;;;;;36.42;19.92;;;;;;;;;;4993594;28;20189;-48
2022/01/22 11:15:32;;;;;;;36.27;17.20;;;;;;;;;;4993720;28;20695;-48
2022/01/22 11:17:58;;;;;;;41.92;19.65;;;;;;;;;;4993664;28;20412;-47
2022/01/22 11:20:25;;;;;;;39.27;18.97;;;;;;;;;;4993302;28;20303;-48
2022/01/22 11:22:51;;;;;;;31.20;17.33;;;;;;;;;;4993357;28;20904;-47
2022/01/22 11:25:19;;;;;;;34.53;19.20;;;;;;;;;;4993440;28;20482;-50
2022/01/22 11:27:45;;;;;;;29.07;15.50;;;;;;;;;;4993563;28;20838;-48
2022/01/22 11:30:13;;;;;;;30.27;16.50;;;;;;;;;;4993169;28;20405;-50
2022/01/22 11:32:58;;;;;;;31.20;16.10;;;;;;;;;;4991395;28;20847;-48
2022/01/22 11:35:28;;;;;;;33.83;17.70;;;;;;;;;;4993195;28;20435;-48
2022/01/22 11:38:01;;;;;;;26.57;16.37;;;;;;;;;;4993059;28;20400;-49
2022/01/22 11:40:27;;;;;;;25.53;14.80;;;;;;;;;;4993047;28;20400;-48
2022/01/22 11:43:13;;;;;;;18.40;12.03;;;;;;;;;;4993034;28;20417;-49
2022/01/22 11:45:46;;;;;;;19.53;12.73;;;;;;;;;;4992766;28;20430;-49
2022/01/22 11:48:26;;;;;;;20.77;11.70;;;;;;;;;;4993103;28;20396;-47
2022/01/22 11:51:15;;;;;;;16.33;10.80;;;;;;;;;;4992533;28;20487;-49
2022/01/22 11:53:42;;;;;;;19.23;12.47;;;;;;;;;;4982715;28;20548;-48
2022/01/22 11:56:08;;;;;;;31.30;13.57;;;;;;;;;;4992750;28;20402;-48
2022/01/22 11:58:53;;;;;;;23.27;12.50;;;;;;;;;;4992974;28;20430;-47
2022/01/22 12:01:39;;;;;;;20.87;14.60;;;;;;;;;;4987932;28;20526;-50
2022/01/22 12:04:05;;;;;;;21.50;13.77;;;;;;;;;;4992846;28;20456;-49
2022/01/22 12:06:33;;;;;;;18.27;12.63;;;;;;;;;;4992720;28;20842;-48
2022/01/22 12:09:15;;;;;;;18.97;11.70;;;;;;;;;;4992528;28;20247;-48
2022/01/22 12:14:49;;;;;;;13.85;10.57;;;;;;;;;;4992480;28;20530;-51
2022/01/22 12:17:27;;;;;;;14.73;9.83;;;;;;;;;;4990750;28;20170;-50
2022/01/22 12:22:35;;;;;;;13.32;8.75;;;;;;;;;;4973163;28;20262;-50
2022/01/22 12:25:02;;;;;;;13.07;8.20;;;;;;;;;;4972798;28;20173;-52
2022/01/22 12:27:48;;;;;;;12.10;9.47;;;;;;;;;;4973058;28;20225;-50
2022/01/22 12:30:16;;;;;;;22.07;9.80;;;;;;;;;;4968764;28;20417;-50
2022/01/22 12:32:45;;;;;;;13.10;9.30;;;;;;;;;;4972775;28;20438;-51
2022/01/22 12:35:15;;;;;;;13.07;9.40;;;;;;;;;;4972739;28;20820;-50
2022/01/22 12:37:44;;;;;;;13.87;9.40;;;;;;;;;;4970805;28;20568;-51
2022/01/22 12:40:11;;;;;;;13.73;8.53;;;;;;;;;;4971233;28;20921;-50
2022/01/22 12:42:51;;;;;;;13.50;7.83;;;;;;;;;;4972529;28;20405;-51
2022/01/22 12:45:18;;;;;;;13.98;8.32;;;;;;;;;;4972689;28;20460;-52
2022/01/22 12:47:47;;;;;;;14.33;8.37;;;;;;;;;;4970952;28;20590;-51
2022/01/22 12:50:12;;;;;;;11.57;8.98;;;;;;;;;;4966668;28;20984;-50
2022/01/22 12:52:45;;;;;;;10.17;7.60;;;;;;;;;;4972532;28;20198;-51
2022/01/22 12:55:24;;;;;;;12.45;8.32;;;;;;;;;;4972158;28;20462;-50
2022/01/22 12:57:50;;;;;;;11.38;7.60;;;;;;;;;;4972419;28;20192;-50
2022/01/22 13:00:19;;;;;;;13.80;8.93;;;;;;;;;;4972167;28;20665;-52
2022/01/22 13:02:55;;;;;;;16.63;9.13;;;;;;;;;;4972343;28;20979;-50
2022/01/22 13:05:21;;;;;;;11.97;8.90;;;;;;;;;;4972501;28;20393;-52
2022/01/22 13:07:56;;;;;;;13.52;9.50;;;;;;;;;;4972542;28;20404;-50
2022/01/22 13:10:27;;;;;;;14.40;10.52;;;;;;;;;;4972151;28;20719;-50
2022/01/22 13:12:55;;;;;;;21.07;13.57;;;;;;;;;;4972171;28;20197;-50
2022/01/22 13:15:21;;;;;;;18.98;11.18;;;;;;;;;;4970854;28;20432;-50
2022/01/22 13:17:53;;;;;;;17.10;10.97;;;;;;;;;;4972648;28;20225;-50
2022/01/22 13:20:21;;;;;;;20.73;10.50;;;;;;;;;;4972109;28;20417;-51
2022/01/22 13:22:49;;;;;;;17.80;10.60;;;;;;;;;;4972342;28;20252;-50
2022/01/22 13:25:15;;;;;;;20.40;9.77;;;;;;;;;;4972247;28;20453;-53
2022/01/22 13:27:42;;;;;;;18.17;11.33;;;;;;;;;;4972186;28;20512;-50
2022/01/22 13:30:10;;;;;;;18.80;11.33;;;;;;;;;;4971930;28;20416;-50
2022/01/22 13:33:01;;;;;;;19.60;11.40;;;;;;;;;;4972073;28;20397;-51
2022/01/22 13:44:59;;;;;;;18.17;10.67;;;;;;;;;;4971858;28;20838;-51
2022/01/22 13:49:13;;;;;;;14.60;10.43;;;;;;;;;;4971897;28;20185;-50
2022/01/22 13:51:39;;;;;;;19.87;11.27;;;;;;;;;;4971914;28;20530;-52
2022/01/22 13:54:05;;;;;;;15.63;10.83;;;;;;;;;;4971951;28;20477;-50
2022/01/22 13:56:48;;;;;;;15.90;9.75;;;;;;;;;;4971881;28;20394;-51
2022/01/22 13:59:18;;;;;;;12.50;10.10;;;;;;;;;;4971590;28;20198;-50
2022/01/22 14:02:07;;;;;;;14.87;10.33;;;;;;;;;;4971777;28;20270;-50
2022/01/22 14:04:42;;;;;;;14.03;9.83;;;;;;;;;;4972082;28;20947;-51
2022/01/22 14:07:27;;;;;;;17.27;9.80;;;;;;;;;;4972622;28;20416;-52
2022/01/22 14:09:53;;;;;;;19.23;11.30;;;;;;;;;;4975156;28;20405;-50
2022/01/22 14:12:19;;;;;;;20.53;12.10;;;;;;;;;;4975311;28;20211;-50
2022/01/22 14:14:58;;;;;;;20.33;10.93;;;;;;;;;;4974680;28;20469;-50
2022/01/22 14:17:32;;;;;;;17.90;13.57;;;;;;;;;;4974917;28;20786;-52
2022/01/22 14:20:13;;;;;;;22.50;13.73;;;;;;;;;;4975379;28;20549;-50
2022/01/22 14:22:58;;;;;;;21.90;12.40;;;;;;;;;;4975222;28;20177;-50
2022/01/22 14:25:24;;;;;;;17.70;11.30;;;;;;;;;;4975293;28;20398;-51
2022/01/22 14:27:57;;;;;;;26.33;12.73;;;;;;;;;;4975189;28;20189;-50
2022/01/22 14:30:36;;;;;;;22.88;14.02;;;;;;;;;;4974944;28;20189;-51
2022/01/22 14:33:03;;;;;;;18.63;12.35;;;;;;;;;;4975054;28;20198;-50
2022/01/22 14:35:29;;;;;;;26.27;15.60;;;;;;;;;;4975060;28;20278;-50
2022/01/22 14:37:57;;;;;;;24.27;14.88;;;;;;;;;;4974879;28;21046;-51
2022/01/22 14:45:58;;;;;;;18.42;11.80;;;;;;;;;;4973148;28;20181;-50
2022/01/22 14:48:24;;;;;;;20.33;10.73;;;;;;;;;;4974754;28;20184;-50
2022/01/22 14:50:50;;;;;;;19.73;11.60;;;;;;;;;;4972712;28;20205;-51
2022/01/22 14:53:16;;;;;;;19.70;12.77;;;;;;;;;;4974584;28;20263;-50
2022/01/22 14:55:49;;;;;;;17.27;12.43;;;;;;;;;;4974715;28;21103;-50
2022/01/22 14:58:15;;;;;;;16.27;11.13;;;;;;;;;;4974630;28;20604;-52
2022/01/22 15:00:41;;;;;;;20.67;11.98;;;;;;;;;;4974283;28;20336;-51
2022/01/22 15:03:07;;;;;;;21.27;12.13;;;;;;;;;;4974391;28;20207;-50
2022/01/22 15:05:33;;;;;;;14.07;10.50;;;;;;;;;;4974510;28;20430;-51
2022/01/22 15:08:00;;;;;;;17.00;10.67;;;;;;;;;;4974329;28;20429;-50
2022/01/22 15:10:26;;;;;;;15.20;10.07;;;;;;;;;;4974039;28;20440;-50
2022/01/22 15:12:52;;;;;;;16.60;10.20;;;;;;;;;;4974238;28;20841;-51
2022/01/22 15:15:19;;;;;;;19.30;10.97;;;;;;;;;;4973716;28;20253;-51
2022/01/22 15:20:14;;;;;;;16.50;10.90;;;;;;;;;;4973014;28;20173;-51
2022/01/22 15:22:41;;;;;;;17.02;10.10;;;;;;;;;;4974201;28;20846;-51
2022/01/22 15:25:07;;;;;;;14.47;8.93;;;;;;;;;;4974019;28;20174;-50
2022/01/22 15:27:33;;;;;;;15.93;10.35;;;;;;;;;;4972818;28;20410;-51
2022/01/22 15:30:11;;;;;;;11.87;8.77;;;;;;;;;;4973883;28;20691;-50
2022/01/22 15:35:23;;;;;;;17.80;10.43;;;;;;;;;;4974311;28;20184;-50
2022/01/22 15:37:51;;;;;;;15.47;10.00;;;;;;;;;;4973886;28;20173;-52
2022/01/22 15:40:18;;;;;;;15.73;9.65;;;;;;;;;;4973557;28;20497;-51
2022/01/22 15:42:45;;;;;;;17.05;11.52;;;;;;;;;;4973846;28;20173;-51
2022/01/22 15:45:13;;;;;;;25.98;10.65;;;;;;;;;;4973868;28;20171;-53
2022/01/22 15:47:39;;;;;;;17.90;10.50;;;;;;;;;;4972808;28;20210;-50
2022/01/22 15:50:06;;;;;;;18.33;10.03;;;;;;;;;;4973621;28;20201;-51
2022/01/22 15:52:32;;;;;;;15.88;11.63;;;;;;;;;;4973667;28;20405;-51
2022/01/22 15:54:59;;;;;;;18.83;10.70;;;;;;;;;;4973811;28;20591;-53
2022/01/22 15:57:26;;;;;;;16.33;10.52;;;;;;;;;;4973633;28;20398;-50
2022/01/22 15:59:52;;;;;;;15.75;10.63;;;;;;;;;;4973441;28;20539;-51
2022/01/22 16:02:19;;;;;;;19.63;11.60;;;;;;;;;;4973456;28;20218;-51
2022/01/22 16:04:49;;;;;;;25.45;12.18;;;;;;;;;;4973607;28;20709;-52
2022/01/22 16:09:45;;;;;;;18.10;11.88;;;;;;;;;;4973215;28;20177;-50
2022/01/22 16:12:11;;;;;;;23.40;13.02;;;;;;;;;;4973092;28;20209;-51
2022/01/22 16:14:37;;;;;;;23.17;12.70;;;;;;;;;;4973293;28;20202;-50
2022/01/22 16:17:04;;;;;;;21.02;13.05;;;;;;;;;;4972515;28;20181;-50
2022/01/22 16:19:33;;;;;;;25.83;11.90;;;;;;;;;;4972545;28;20200;-50
2022/01/22 16:21:59;;;;;;;24.95;13.48;;;;;;;;;;4973000;28;20178;-51
2022/01/22 16:24:25;;;;;;;27.23;13.45;;;;;;;;;;4973176;28;20169;-51